createdAt,value
2023-05-21T00:00:25.221Z,1677.00
2023-05-21T00:01:25.246Z,1695.00
2023-05-21T00:02:25.324Z,1704.00
2023-05-21T00:03:25.428Z,1702.00
2023-05-21T00:04:25.358Z,1722.00
2023-05-21T00:05:25.368Z,1709.00
2023-05-21T00:06:25.413Z,1716.00
2023-05-21T00:07:25.443Z,1702.00
2023-05-21T00:08:25.460Z,1691.00
2023-05-21T00:09:25.495Z,1689.00
2023-05-21T00:10:25.525Z,1689.00
2023-05-21T00:11:25.580Z,1696.00
2023-05-21T00:12:25.604Z,1691.00
2023-05-21T00:13:25.641Z,1723.00
2023-05-21T00:14:25.678Z,1734.00
2023-05-21T00:15:25.726Z,1708.00
2023-05-21T00:16:25.834Z,1712.00
2023-05-21T00:17:25.819Z,1690.00
2023-05-21T00:18:25.822Z,1694.00
2023-05-21T00:19:25.933Z,1674.00
2023-05-21T00:20:25.876Z,1690.00
2023-05-21T00:21:25.913Z,1704.00
2023-05-21T00:22:25.957Z,1690.00
2023-05-21T00:23:25.974Z,1689.00
2023-05-21T00:24:26.007Z,1712.00
2023-05-21T00:25:26.041Z,1720.00
2023-05-21T00:26:26.071Z,1750.00
2023-05-21T00:27:26.100Z,1760.00
2023-05-21T00:28:26.117Z,1774.00
2023-05-21T00:29:26.153Z,1778.00
2023-05-21T00:30:26.185Z,1782.00
2023-05-21T00:31:26.231Z,1781.00
2023-05-21T00:32:26.291Z,1796.00
2023-05-21T00:33:26.261Z,1800.00
2023-05-21T00:34:26.290Z,1817.00
2023-05-21T00:35:26.319Z,1826.00
2023-05-21T00:36:26.356Z,1841.00
2023-05-21T00:37:26.372Z,1812.00
2023-05-21T00:38:26.422Z,1819.00
2023-05-21T00:39:26.441Z,1856.00
2023-05-21T00:40:26.493Z,1842.00
2023-05-21T00:41:26.514Z,1856.00
2023-05-21T00:42:26.549Z,1835.00
2023-05-21T00:43:26.560Z,1849.00
2023-05-21T00:44:26.598Z,1849.00
2023-05-21T00:45:26.657Z,1851.00
2023-05-21T00:46:26.768Z,1872.00
2023-05-21T00:47:26.735Z,1888.00
2023-05-21T00:48:26.727Z,1900.00
2023-05-21T00:49:26.782Z,1911.00
2023-05-21T00:50:26.805Z,1945.00
2023-05-21T00:51:26.834Z,1929.00
2023-05-21T00:52:26.977Z,1937.00
2023-05-21T00:53:26.906Z,1955.00
2023-05-21T00:54:26.948Z,1960.00
2023-05-21T00:55:26.957Z,1959.00
2023-05-21T00:56:26.984Z,1971.00
2023-05-21T00:57:27.062Z,1969.00
2023-05-21T00:58:27.039Z,1974.00
2023-05-21T00:59:27.067Z,1978.00
2023-05-21T01:00:27.111Z,1962.00
2023-05-21T01:01:27.226Z,1970.00
2023-05-21T01:02:27.212Z,1990.00
2023-05-21T01:03:27.289Z,2004.00
2023-05-21T01:04:27.221Z,1982.00
2023-05-21T01:05:27.266Z,1981.00
2023-05-21T01:06:27.283Z,1980.00
2023-05-21T01:07:27.321Z,1988.00
2023-05-21T01:08:27.332Z,1997.00
2023-05-21T01:09:27.391Z,1995.00
2023-05-21T01:10:27.403Z,2000.00
2023-05-21T01:11:27.451Z,2001.00
2023-05-21T01:12:27.492Z,2019.00
2023-05-21T01:13:27.507Z,2012.00
2023-05-21T01:14:27.552Z,2019.00
2023-05-21T01:15:27.597Z,2032.00
2023-05-21T01:16:27.602Z,2042.00
2023-05-21T01:17:27.658Z,2053.00
2023-05-21T01:18:27.709Z,2052.00
2023-05-21T01:19:27.698Z,2045.00
2023-05-21T01:20:27.748Z,2072.00
2023-05-21T01:21:27.762Z,2080.00
2023-05-21T01:22:27.791Z,2079.00
2023-05-21T01:23:27.822Z,2082.00
2023-05-21T01:24:27.871Z,2061.00
2023-05-21T01:25:27.902Z,2071.00
2023-05-21T01:26:27.927Z,2057.00
2023-05-21T01:27:27.972Z,2067.00
2023-05-21T01:28:28.011Z,2070.00
2023-05-21T01:29:28.035Z,2060.00
2023-05-21T01:30:28.090Z,2056.00
2023-05-21T01:31:28.123Z,2052.00
2023-05-21T01:32:28.150Z,2034.00
2023-05-21T01:33:28.261Z,2026.00
2023-05-21T01:34:28.206Z,2023.00
2023-05-21T01:35:28.237Z,2023.00
2023-05-21T01:36:28.282Z,2024.00
2023-05-21T01:37:28.303Z,2026.00
2023-05-21T01:38:28.347Z,2045.00
2023-05-21T01:39:28.369Z,2068.00
2023-05-21T01:40:28.471Z,2065.00
2023-05-21T01:41:28.445Z,2071.00
2023-05-21T01:42:28.472Z,2072.00
2023-05-21T01:43:28.512Z,2060.00
2023-05-21T01:44:28.561Z,2056.00
2023-05-21T01:45:28.593Z,2051.00
2023-05-21T01:46:28.679Z,2062.00
2023-05-21T01:47:28.696Z,2062.00
2023-05-21T01:48:28.712Z,2073.00
2023-05-21T01:49:28.732Z,2063.00
2023-05-21T01:50:28.786Z,2072.00
2023-05-21T01:51:28.814Z,2055.00
2023-05-21T01:52:28.854Z,2040.00
2023-05-21T01:53:28.925Z,2024.00
2023-05-21T01:54:28.927Z,2029.00
2023-05-21T01:55:28.975Z,2023.00
2023-05-21T01:56:28.978Z,2014.00
2023-05-21T01:57:29.035Z,2036.00
2023-05-21T01:58:29.068Z,2034.00
2023-05-21T01:59:29.093Z,2046.00
2023-05-21T02:00:29.151Z,2043.00
2023-05-21T02:01:29.222Z,2055.00
2023-05-21T02:02:29.316Z,2048.00
2023-05-21T02:03:29.332Z,2060.00
2023-05-21T02:04:29.281Z,2082.00
2023-05-21T02:05:29.320Z,2106.00
2023-05-21T02:06:29.373Z,2089.00
2023-05-21T02:07:29.399Z,2094.00
2023-05-21T02:08:29.437Z,2101.00
2023-05-21T02:09:29.522Z,2099.00
2023-05-21T02:10:29.522Z,2115.00
2023-05-21T02:11:29.558Z,2105.00
2023-05-21T02:12:29.643Z,2108.00
2023-05-21T02:13:29.652Z,2112.00
2023-05-21T02:14:29.698Z,2112.00
2023-05-21T02:15:29.735Z,2117.00
2023-05-21T02:16:29.806Z,2105.00
2023-05-21T02:17:29.819Z,2098.00
2023-05-21T02:18:29.853Z,2130.00
2023-05-21T02:19:29.970Z,2098.00
2023-05-21T02:20:29.966Z,2100.00
2023-05-21T02:21:30.034Z,2109.00
2023-05-21T02:22:30.040Z,2120.00
2023-05-21T02:23:30.051Z,2107.00
2023-05-21T02:24:30.078Z,2099.00
2023-05-21T02:25:30.108Z,2119.00
2023-05-21T02:26:30.161Z,2099.00
2023-05-21T02:27:30.206Z,2108.00
2023-05-21T02:28:30.240Z,2109.00
2023-05-21T02:29:30.287Z,2101.00
2023-05-21T02:30:30.339Z,2122.00
2023-05-21T02:31:30.378Z,2123.00
2023-05-21T02:32:30.431Z,2137.00
2023-05-21T02:33:30.433Z,2136.00
2023-05-21T02:34:30.531Z,2140.00
2023-05-21T02:35:30.513Z,2148.00
2023-05-21T02:36:30.553Z,2151.00
2023-05-21T02:37:30.596Z,2160.00
2023-05-21T02:38:30.650Z,2155.00
2023-05-21T02:39:30.702Z,2141.00
2023-05-21T02:40:30.731Z,2140.00
2023-05-21T02:41:30.756Z,2138.00
2023-05-21T02:42:30.813Z,2163.00
2023-05-21T02:43:30.850Z,2144.00
2023-05-21T02:44:30.888Z,2167.00
2023-05-21T02:45:31.036Z,2143.00
2023-05-21T02:46:30.971Z,2146.00
2023-05-21T02:47:31.029Z,2169.00
2023-05-21T02:48:31.045Z,2160.00
2023-05-21T02:49:31.072Z,2158.00
2023-05-21T02:50:31.109Z,2153.00
2023-05-21T02:51:31.146Z,2152.00
2023-05-21T02:52:31.176Z,2166.00
2023-05-21T02:53:31.233Z,2151.00
2023-05-21T02:54:31.269Z,2143.00
2023-05-21T02:55:31.301Z,2148.00
2023-05-21T02:56:31.340Z,2148.00
2023-05-21T02:57:31.394Z,2139.00
2023-05-21T02:58:31.423Z,2134.00
2023-05-21T02:59:31.480Z,2118.00
2023-05-21T03:00:31.515Z,2112.00
2023-05-21T03:01:31.645Z,2103.00
2023-05-21T03:02:31.665Z,2087.00
2023-05-21T03:03:31.813Z,2089.00
2023-05-21T03:04:31.693Z,2084.00
2023-05-21T03:05:31.750Z,2074.00
2023-05-21T03:06:31.773Z,2080.00
2023-05-21T03:07:31.818Z,2088.00
2023-05-21T03:08:31.925Z,2081.00
2023-05-21T03:09:31.925Z,2075.00
2023-05-21T03:10:31.950Z,2066.00
2023-05-21T03:11:31.995Z,2076.00
2023-05-21T03:12:32.049Z,2067.00
2023-05-21T03:13:32.132Z,2078.00
2023-05-21T03:14:32.169Z,2081.00
2023-05-21T03:15:32.171Z,2082.00
2023-05-21T03:16:32.253Z,2060.00
2023-05-21T03:17:32.337Z,2063.00
2023-05-21T03:18:32.325Z,2053.00
2023-05-21T03:19:32.380Z,2083.00
2023-05-21T03:20:32.404Z,2073.00
2023-05-21T03:21:32.452Z,2082.00
2023-05-21T03:22:32.510Z,2070.00
2023-05-21T03:23:32.535Z,2050.00
2023-05-21T03:24:32.577Z,2071.00
2023-05-21T03:25:32.615Z,2071.00
2023-05-21T03:26:32.662Z,2092.00
2023-05-21T03:27:32.712Z,2102.00
2023-05-21T03:28:32.769Z,2107.00
2023-05-21T03:29:32.805Z,2109.00
2023-05-21T03:30:32.844Z,2140.00
2023-05-21T03:31:32.920Z,2132.00
2023-05-21T03:32:32.963Z,2163.00
2023-05-21T03:33:32.997Z,2156.00
2023-05-21T03:34:33.020Z,2151.00
2023-05-21T03:35:33.067Z,2177.00
2023-05-21T03:36:33.106Z,2173.00
2023-05-21T03:37:33.154Z,2166.00
2023-05-21T03:38:33.764Z,2179.00
2023-05-21T03:39:33.250Z,2192.00
2023-05-21T03:40:33.290Z,2195.00
2023-05-21T03:41:33.327Z,2165.00
2023-05-21T03:42:33.376Z,2164.00
2023-05-21T03:43:33.449Z,2168.00
2023-05-21T03:44:33.467Z,2158.00
2023-05-21T03:45:33.648Z,2159.00
2023-05-21T03:46:33.687Z,2144.00
2023-05-21T03:47:33.664Z,2151.00
2023-05-21T03:48:33.662Z,2139.00
2023-05-21T03:49:33.712Z,2144.00
2023-05-21T03:50:33.754Z,2143.00
2023-05-21T03:51:33.825Z,2131.00
2023-05-21T03:52:33.859Z,2133.00
2023-05-21T03:53:33.911Z,2156.00
2023-05-21T03:54:33.944Z,2170.00
2023-05-21T03:55:34.144Z,2179.00
2023-05-21T03:56:34.058Z,2148.00
2023-05-21T03:57:34.095Z,2149.00
2023-05-21T03:58:34.126Z,2157.00
2023-05-21T03:59:34.207Z,2155.00
2023-05-21T04:00:34.224Z,2145.00
2023-05-21T04:01:34.277Z,2162.00
2023-05-21T04:02:34.323Z,2171.00
2023-05-21T04:03:34.457Z,2159.00
2023-05-21T04:04:34.450Z,2136.00
2023-05-21T04:05:34.546Z,2119.00
2023-05-21T04:06:34.486Z,2138.00
2023-05-21T04:07:34.545Z,2133.00
2023-05-21T04:08:34.579Z,2112.00
2023-05-21T04:09:36.523Z,2095.00
2023-05-21T04:10:34.667Z,2130.00
2023-05-21T04:11:34.721Z,2096.00
2023-05-21T04:12:34.764Z,2110.00
2023-05-21T04:13:34.818Z,2094.00
2023-05-21T04:14:34.869Z,2091.00
2023-05-21T04:15:35.086Z,2109.00
2023-05-21T04:16:35.102Z,2093.00
2023-05-21T04:17:35.032Z,2125.00
2023-05-21T04:18:35.051Z,2137.00
2023-05-21T04:19:35.309Z,2116.00
2023-05-21T04:20:35.169Z,2123.00
2023-05-21T04:21:35.185Z,2124.00
2023-05-21T04:22:35.303Z,2150.00
2023-05-21T04:23:35.302Z,2160.00
2023-05-21T04:24:35.333Z,2158.00
2023-05-21T04:25:35.616Z,2167.00
2023-05-21T04:26:35.450Z,2163.00
2023-05-21T04:27:35.483Z,2156.00
2023-05-21T04:28:35.608Z,2146.00
2023-05-21T04:29:35.591Z,2182.00
2023-05-21T04:30:35.654Z,2186.00
2023-05-21T04:31:35.704Z,2191.00
2023-05-21T04:32:35.729Z,2196.00
2023-05-21T04:33:35.793Z,2200.00
2023-05-21T04:34:35.814Z,2213.00
2023-05-21T04:35:36.145Z,2216.00
2023-05-21T04:36:35.936Z,2222.00
2023-05-21T04:37:35.974Z,2206.00
2023-05-21T04:38:36.014Z,2212.00
2023-05-21T04:39:36.070Z,2190.00
2023-05-21T04:40:36.692Z,2184.00
2023-05-21T04:41:36.154Z,2183.00
2023-05-21T04:42:36.220Z,2180.00
2023-05-21T04:43:36.264Z,2190.00
2023-05-21T04:44:36.300Z,2194.00
2023-05-21T04:45:36.482Z,2193.00
2023-05-21T04:46:36.444Z,2191.00
2023-05-21T04:47:36.482Z,2165.00
2023-05-21T04:48:36.495Z,2164.00
2023-05-21T04:49:36.543Z,2175.00
2023-05-21T04:50:36.600Z,2155.00
2023-05-21T04:51:36.665Z,2158.00
2023-05-21T04:52:36.682Z,2156.00
2023-05-21T04:53:36.772Z,2137.00
2023-05-21T04:54:36.786Z,2122.00
2023-05-21T04:55:37.091Z,2121.00
2023-05-21T04:56:36.874Z,2101.00
2023-05-21T04:57:36.927Z,2093.00
2023-05-21T04:58:36.970Z,2110.00
2023-05-21T04:59:37.018Z,2095.00
2023-05-21T05:00:37.128Z,2086.00
2023-05-21T05:01:37.114Z,2082.00
2023-05-21T05:02:37.167Z,2070.00
2023-05-21T05:03:37.213Z,2075.00
2023-05-21T05:04:37.214Z,2075.00
2023-05-21T05:05:37.346Z,2090.00
2023-05-21T05:06:37.282Z,2099.00
2023-05-21T05:07:37.323Z,2114.00
2023-05-21T05:08:37.365Z,2107.00
2023-05-21T05:09:37.419Z,2142.00
2023-05-21T05:10:37.421Z,2153.00
2023-05-21T05:11:37.468Z,2182.00
2023-05-21T05:12:37.488Z,2225.00
2023-05-21T05:13:37.540Z,2231.00
2023-05-21T05:14:37.551Z,2256.00
2023-05-21T05:15:38.005Z,2215.00
2023-05-21T05:16:37.718Z,2158.00
2023-05-21T05:17:37.761Z,2133.00
2023-05-21T05:18:37.699Z,2116.00
2023-05-21T05:19:37.724Z,2106.00
2023-05-21T05:20:37.759Z,2116.00
2023-05-21T05:21:37.791Z,2129.00
2023-05-21T05:22:37.820Z,2152.00
2023-05-21T05:23:37.809Z,2159.00
2023-05-21T05:24:37.846Z,2183.00
2023-05-21T05:25:37.986Z,2278.00
2023-05-21T05:26:37.872Z,2362.00
2023-05-21T05:27:38.589Z,2426.00
2023-05-21T05:28:37.893Z,2448.00
2023-05-21T05:29:37.922Z,2480.00
2023-05-21T05:30:38.015Z,2490.00
2023-05-21T05:31:37.957Z,2487.00
2023-05-21T05:32:38.104Z,2482.00
2023-05-21T05:33:37.977Z,2482.00
2023-05-21T05:34:38.000Z,2470.00
2023-05-21T05:35:38.233Z,2482.00
2023-05-21T05:36:38.001Z,2487.00
2023-05-21T05:37:38.045Z,2476.00
2023-05-21T05:38:38.043Z,2487.00
2023-05-21T05:39:38.058Z,2478.00
2023-05-21T05:40:38.056Z,2475.00
2023-05-21T05:41:38.072Z,2470.00
2023-05-21T05:42:38.100Z,2484.00
2023-05-21T05:43:38.081Z,2460.00
2023-05-21T05:44:38.086Z,2461.00
2023-05-21T05:45:38.433Z,2472.00
2023-05-21T05:46:38.257Z,2460.00
2023-05-21T05:47:38.125Z,2465.00
2023-05-21T05:48:38.104Z,2461.00
2023-05-21T05:49:38.108Z,2469.00
2023-05-21T05:50:38.135Z,2468.00
2023-05-21T05:51:38.111Z,2463.00
2023-05-21T05:52:38.112Z,2474.00
2023-05-21T05:53:38.116Z,2468.00
2023-05-21T05:54:38.116Z,2456.00
2023-05-21T05:55:38.483Z,2442.00
2023-05-21T05:56:38.133Z,2450.00
2023-05-21T05:57:38.098Z,2448.00
2023-05-21T05:58:38.108Z,2463.00
2023-05-21T05:59:38.084Z,2439.00
2023-05-21T06:00:38.079Z,2446.00
2023-05-21T06:01:38.088Z,2443.00
2023-05-21T06:02:38.159Z,2426.00
2023-05-21T06:03:38.184Z,2431.00
2023-05-21T06:04:38.069Z,2424.00
2023-05-21T06:05:38.260Z,2427.00
2023-05-21T06:06:38.049Z,2409.00
2023-05-21T06:07:38.059Z,2395.00
2023-05-21T06:08:38.371Z,2399.00
2023-05-21T06:09:38.067Z,2410.00
2023-05-21T06:10:38.063Z,2415.00
2023-05-21T06:11:38.062Z,2411.00
2023-05-21T06:12:38.081Z,2401.00
2023-05-21T06:13:38.075Z,2421.00
2023-05-21T06:14:38.117Z,2397.00
2023-05-21T06:15:38.400Z,2402.00
2023-05-21T06:16:38.208Z,2400.00
2023-05-21T06:17:38.217Z,2395.00
2023-05-21T06:18:38.212Z,2401.00
2023-05-21T06:19:38.238Z,2386.00
2023-05-21T06:20:38.290Z,2401.00
2023-05-21T06:21:38.291Z,2390.00
2023-05-21T06:22:38.322Z,2386.00
2023-05-21T06:23:38.357Z,2399.00
2023-05-21T06:24:38.400Z,2407.00
2023-05-21T06:25:38.689Z,2398.00
2023-05-21T06:26:38.473Z,2406.00
2023-05-21T06:27:38.509Z,2384.00
2023-05-21T06:28:38.517Z,2386.00
2023-05-21T06:29:38.556Z,2399.00
2023-05-21T06:30:38.608Z,2411.00
2023-05-21T06:31:38.658Z,2398.00
2023-05-21T06:32:38.810Z,2398.00
2023-05-21T06:33:38.843Z,2390.00
2023-05-21T06:34:38.784Z,2390.00
2023-05-21T06:35:38.917Z,2382.00
2023-05-21T06:36:38.833Z,2386.00
2023-05-21T06:37:38.870Z,2380.00
2023-05-21T06:38:38.914Z,2374.00
2023-05-21T06:39:38.966Z,2372.00
2023-05-21T06:40:39.033Z,2375.00
2023-05-21T06:41:39.050Z,2366.00
2023-05-21T06:42:39.063Z,2363.00
2023-05-21T06:43:39.102Z,2374.00
2023-05-21T06:44:39.151Z,2382.00
2023-05-21T06:45:39.454Z,2353.00
2023-05-21T06:46:39.173Z,2355.00
2023-05-21T06:47:39.268Z,2346.00
2023-05-21T06:48:39.225Z,2353.00
2023-05-21T06:49:39.242Z,2353.00
2023-05-21T06:50:39.324Z,2347.00
2023-05-21T06:51:39.283Z,2358.00
2023-05-21T06:52:39.294Z,2359.00
2023-05-21T06:53:39.284Z,2346.00
2023-05-21T06:54:39.305Z,2357.00
2023-05-21T06:55:39.387Z,2342.00
2023-05-21T06:56:39.355Z,2339.00
2023-05-21T06:57:39.414Z,2350.00
2023-05-21T06:58:39.412Z,2351.00
2023-05-21T06:59:39.421Z,2336.00
2023-05-21T07:00:39.434Z,2343.00
2023-05-21T07:01:39.546Z,2338.00
2023-05-21T07:02:39.535Z,2341.00
2023-05-21T07:03:39.544Z,2328.00
2023-05-21T07:04:39.506Z,2324.00
2023-05-21T07:05:39.891Z,2326.00
2023-05-21T07:06:39.529Z,2339.00
2023-05-21T07:07:39.552Z,2316.00
2023-05-21T07:08:39.575Z,2312.00
2023-05-21T07:09:39.575Z,2310.00
2023-05-21T07:10:39.585Z,2306.00
2023-05-21T07:11:39.617Z,2311.00
2023-05-21T07:12:39.639Z,2304.00
2023-05-21T07:13:39.646Z,2293.00
2023-05-21T07:14:39.669Z,2288.00
2023-05-21T07:15:39.687Z,2282.00
2023-05-21T07:16:39.781Z,2273.00
2023-05-21T07:17:39.726Z,2285.00
2023-05-21T07:18:39.705Z,2287.00
2023-05-21T07:19:39.727Z,2272.00
2023-05-21T07:20:39.774Z,2266.00
2023-05-21T07:21:39.780Z,2267.00
2023-05-21T07:22:39.790Z,2251.00
2023-05-21T07:23:39.808Z,2255.00
2023-05-21T07:24:39.808Z,2254.00
2023-05-21T07:25:39.834Z,2258.00
2023-05-21T07:26:39.865Z,2260.00
2023-05-21T07:27:39.864Z,2259.00
2023-05-21T07:28:39.897Z,2247.00
2023-05-21T07:29:39.919Z,2241.00
2023-05-21T07:30:39.985Z,2255.00
2023-05-21T07:31:40.128Z,2245.00
2023-05-21T07:32:39.993Z,2256.00
2023-05-21T07:33:40.002Z,2253.00
2023-05-21T07:34:40.019Z,2266.00
2023-05-21T07:35:40.056Z,2262.00
2023-05-21T07:36:40.058Z,2277.00
2023-05-21T07:37:40.126Z,2258.00
2023-05-21T07:38:40.094Z,2263.00
2023-05-21T07:39:40.119Z,2276.00
2023-05-21T07:40:40.156Z,2266.00
2023-05-21T07:41:40.202Z,2269.00
2023-05-21T07:42:40.210Z,2252.00
2023-05-21T07:43:40.245Z,2257.00
2023-05-21T07:44:40.299Z,2258.00
2023-05-21T07:45:40.326Z,2265.00
2023-05-21T07:46:40.508Z,2275.00
2023-05-21T07:47:40.467Z,2262.00
2023-05-21T07:48:40.461Z,2257.00
2023-05-21T07:49:40.513Z,2273.00
2023-05-21T07:50:40.566Z,2273.00
2023-05-21T07:51:40.611Z,2269.00
2023-05-21T07:52:40.674Z,2268.00
2023-05-21T07:53:40.706Z,2269.00
2023-05-21T07:54:40.717Z,2285.00
2023-05-21T07:55:40.775Z,2268.00
2023-05-21T07:56:40.835Z,2264.00
2023-05-21T07:57:40.886Z,2263.00
2023-05-21T07:58:40.954Z,2266.00
2023-05-21T07:59:40.994Z,2259.00
2023-05-21T08:00:41.059Z,2252.00
2023-05-21T08:01:41.142Z,2257.00
2023-05-21T08:02:41.311Z,2256.00
2023-05-21T08:03:41.358Z,2257.00
2023-05-21T08:04:41.574Z,2248.00
2023-05-21T08:05:41.390Z,2258.00
2023-05-21T08:06:41.445Z,2258.00
2023-05-21T08:07:41.493Z,2251.00
2023-05-21T08:08:41.551Z,2247.00
2023-05-21T08:09:41.643Z,2237.00
2023-05-21T08:10:41.699Z,2247.00
2023-05-21T08:11:41.747Z,2245.00
2023-05-21T08:12:41.800Z,2237.00
2023-05-21T08:13:41.850Z,2234.00
2023-05-21T08:14:41.903Z,2229.00
2023-05-21T08:15:41.984Z,2221.00
2023-05-21T08:16:42.184Z,2217.00
2023-05-21T08:17:42.154Z,2223.00
2023-05-21T08:18:42.166Z,2228.00
2023-05-21T08:19:42.210Z,2222.00
2023-05-21T08:20:42.255Z,2212.00
2023-05-21T08:21:42.306Z,2214.00
2023-05-21T08:22:42.386Z,2224.00
2023-05-21T08:23:42.427Z,2219.00
2023-05-21T08:24:42.489Z,2231.00
2023-05-21T08:25:42.559Z,2223.00
2023-05-21T08:26:42.634Z,2216.00
2023-05-21T08:27:42.700Z,2223.00
2023-05-21T08:28:42.735Z,2216.00
2023-05-21T08:29:42.812Z,2218.00
2023-05-21T08:30:42.860Z,2225.00
2023-05-21T08:31:42.951Z,2208.00
2023-05-21T08:32:43.110Z,2205.00
2023-05-21T08:33:43.050Z,2189.00
2023-05-21T08:34:43.122Z,2191.00
2023-05-21T08:35:43.158Z,2201.00
2023-05-21T08:36:43.280Z,2184.00
2023-05-21T08:37:43.301Z,2178.00
2023-05-21T08:38:43.343Z,2175.00
2023-05-21T08:39:43.419Z,2159.00
2023-05-21T08:40:43.487Z,2177.00
2023-05-21T08:41:43.540Z,2181.00
2023-05-21T08:42:43.604Z,2153.00
2023-05-21T08:43:43.660Z,2146.00
2023-05-21T08:44:43.722Z,2140.00
2023-05-21T08:45:43.765Z,2135.00
2023-05-21T08:46:43.836Z,2127.00
2023-05-21T08:47:43.909Z,2124.00
2023-05-21T08:48:43.934Z,2128.00
2023-05-21T08:49:44.000Z,2132.00
2023-05-21T08:50:44.079Z,2124.00
2023-05-21T08:51:44.147Z,2099.00
2023-05-21T08:52:44.291Z,2097.00
2023-05-21T08:53:44.277Z,2099.00
2023-05-21T08:54:44.312Z,2090.00
2023-05-21T08:55:44.363Z,2084.00
2023-05-21T08:56:44.424Z,2066.00
2023-05-21T08:57:44.516Z,2065.00
2023-05-21T08:58:44.560Z,2051.00
2023-05-21T08:59:44.635Z,2046.00
2023-05-21T09:00:44.680Z,2033.00
2023-05-21T09:01:44.765Z,2025.00
2023-05-21T09:02:44.867Z,2012.00
2023-05-21T09:03:44.915Z,2019.00
2023-05-21T09:04:45.017Z,2024.00
2023-05-21T09:05:45.008Z,2018.00
2023-05-21T09:06:45.032Z,2003.00
2023-05-21T09:07:45.105Z,1977.00
2023-05-21T09:08:45.152Z,1961.00
2023-05-21T09:09:45.206Z,1945.00
2023-05-21T09:10:45.297Z,1955.00
2023-05-21T09:11:45.337Z,1948.00
2023-05-21T09:12:45.380Z,1956.00
2023-05-21T09:13:45.421Z,1930.00
2023-05-21T09:14:45.498Z,1928.00
2023-05-21T09:15:45.547Z,1911.00
2023-05-21T09:16:45.621Z,1902.00
2023-05-21T09:17:45.750Z,1897.00
2023-05-21T09:18:45.742Z,1895.00
2023-05-21T09:19:45.754Z,1876.00
2023-05-21T09:20:45.827Z,1860.00
2023-05-21T09:21:45.886Z,1875.00
2023-05-21T09:22:45.939Z,1878.00
2023-05-21T09:23:46.001Z,1861.00
2023-05-21T09:24:46.054Z,1842.00
2023-05-21T09:25:46.128Z,1828.00
2023-05-21T09:26:46.155Z,1836.00
2023-05-21T09:27:46.236Z,1821.00
2023-05-21T09:28:46.288Z,1805.00
2023-05-21T09:29:46.346Z,1795.00
2023-05-21T09:30:46.411Z,1803.00
2023-05-21T09:31:46.722Z,1794.00
2023-05-21T09:32:46.560Z,1786.00
2023-05-21T09:33:46.569Z,1776.00
2023-05-21T09:34:46.630Z,1772.00
2023-05-21T09:35:46.670Z,1757.00
2023-05-21T09:36:46.744Z,1735.00
2023-05-21T09:37:46.778Z,1729.00
2023-05-21T09:38:46.841Z,1729.00
2023-05-21T09:39:46.910Z,1723.00
2023-05-21T09:40:46.965Z,1701.00
2023-05-21T09:41:47.029Z,1706.00
2023-05-21T09:42:47.060Z,1707.00
2023-05-21T09:43:47.118Z,1703.00
2023-05-21T09:44:47.184Z,1688.00
2023-05-21T09:45:47.206Z,1679.00
2023-05-21T09:46:47.350Z,1670.00
2023-05-21T09:47:47.394Z,1670.00
2023-05-21T09:48:47.385Z,1664.00
2023-05-21T09:49:47.530Z,1664.00
2023-05-21T09:50:47.500Z,1648.00
2023-05-21T09:51:47.571Z,1631.00
2023-05-21T09:52:47.623Z,1627.00
2023-05-21T09:53:47.674Z,1614.00
2023-05-21T09:54:47.737Z,1616.00
2023-05-21T09:55:47.815Z,1602.00
2023-05-21T09:56:47.879Z,1600.00
2023-05-21T09:57:49.869Z,1589.00
2023-05-21T09:58:47.917Z,1583.00
2023-05-21T09:59:47.912Z,1582.00
2023-05-21T10:00:47.913Z,1562.00
2023-05-21T10:01:47.920Z,1558.00
2023-05-21T10:02:47.991Z,1535.00
2023-05-21T10:03:50.022Z,1536.00
2023-05-21T10:04:47.947Z,1537.00
2023-05-21T10:05:47.865Z,1530.00
2023-05-21T10:06:47.853Z,1504.00
2023-05-21T10:07:47.841Z,1501.00
2023-05-21T10:08:47.846Z,1481.00
2023-05-21T10:09:47.851Z,1474.00
2023-05-21T10:10:47.839Z,1467.00
2023-05-21T10:11:47.851Z,1444.00
2023-05-21T10:12:47.805Z,1439.00
2023-05-21T10:13:47.815Z,1412.00
2023-05-21T10:14:47.804Z,1427.00
2023-05-21T10:15:50.152Z,1410.00
2023-05-21T10:16:47.868Z,1410.00
2023-05-21T10:17:47.810Z,1406.00
2023-05-21T10:18:47.790Z,1399.00
2023-05-21T10:19:47.771Z,1397.00
2023-05-21T10:20:47.789Z,1381.00
2023-05-21T10:21:47.761Z,1391.00
2023-05-21T10:22:47.757Z,1384.00
2023-05-21T10:23:47.724Z,1374.00
2023-05-21T10:24:47.735Z,1366.00
2023-05-21T10:25:47.712Z,1353.00
2023-05-21T10:26:47.723Z,1357.00
2023-05-21T10:27:47.699Z,1363.00
2023-05-21T10:28:47.702Z,1342.00
2023-05-21T10:29:47.699Z,1332.00
2023-05-21T10:30:47.679Z,1318.00
2023-05-21T10:31:47.722Z,1324.00
2023-05-21T10:32:47.891Z,1330.00
2023-05-21T10:33:47.669Z,1339.00
2023-05-21T10:34:47.646Z,1326.00
2023-05-21T10:35:47.659Z,1330.00
2023-05-21T10:36:47.630Z,1321.00
2023-05-21T10:37:47.642Z,1303.00
2023-05-21T10:38:47.633Z,1295.00
2023-05-21T10:39:47.628Z,1287.00
2023-05-21T10:40:47.629Z,1302.00
2023-05-21T10:41:47.616Z,1299.00
2023-05-21T10:42:47.593Z,1308.00
2023-05-21T10:43:47.610Z,1280.00
2023-05-21T10:44:47.577Z,1275.00
2023-05-21T10:45:47.620Z,1274.00
2023-05-21T10:46:47.586Z,1260.00
2023-05-21T10:47:47.587Z,1261.00
2023-05-21T10:48:47.580Z,1249.00
2023-05-21T10:49:47.540Z,1253.00
2023-05-21T10:50:47.539Z,1270.00
2023-05-21T10:51:47.549Z,1253.00
2023-05-21T10:52:47.515Z,1228.00
2023-05-21T10:53:47.569Z,1216.00
2023-05-21T10:54:47.622Z,1225.00
2023-05-21T10:55:47.696Z,1217.00
2023-05-21T10:56:47.751Z,1232.00
2023-05-21T10:57:47.789Z,1215.00
2023-05-21T10:58:47.843Z,1206.00
2023-05-21T10:59:47.911Z,1175.00
2023-05-21T11:00:47.956Z,1177.00
2023-05-21T11:01:48.035Z,1171.00
2023-05-21T11:02:48.161Z,1171.00
2023-05-21T11:03:48.131Z,1143.00
2023-05-21T11:04:48.168Z,1145.00
2023-05-21T11:05:48.211Z,1137.00
2023-05-21T11:06:48.276Z,1124.00
2023-05-21T11:07:48.314Z,1152.00
2023-05-21T11:08:48.384Z,1141.00
2023-05-21T11:09:48.426Z,1131.00
2023-05-21T11:10:48.484Z,1111.00
2023-05-21T11:11:48.674Z,1103.00
2023-05-21T11:12:48.593Z,1098.00
2023-05-21T11:13:48.661Z,1083.00
2023-05-21T11:14:48.683Z,1088.00
2023-05-21T11:15:48.761Z,1078.00
2023-05-21T11:16:48.842Z,1074.00
2023-05-21T11:17:48.868Z,1073.00
2023-05-21T11:18:48.958Z,1071.00
2023-05-21T11:19:48.976Z,1057.00
2023-05-21T11:20:49.001Z,1059.00
2023-05-21T11:21:49.055Z,1057.00
2023-05-21T11:22:49.087Z,1046.00
2023-05-21T11:23:49.152Z,1027.00
2023-05-21T11:24:50.707Z,1019.00
2023-05-21T11:25:49.271Z,1031.00
2023-05-21T11:26:49.326Z,1018.00
2023-05-21T11:27:49.348Z,1004.00
2023-05-21T11:28:49.404Z,1047.00
2023-05-21T11:29:49.447Z,1018.00
2023-05-21T11:30:49.508Z,1025.00
2023-05-21T11:31:49.621Z,1009.00
2023-05-21T11:32:49.637Z,985.00
2023-05-21T11:33:49.669Z,978.00
2023-05-21T11:34:49.759Z,958.00
2023-05-21T11:35:49.768Z,950.00
2023-05-21T11:36:49.842Z,947.00
2023-05-21T11:37:49.871Z,958.00
2023-05-21T11:38:49.943Z,946.00
2023-05-21T11:39:49.983Z,969.00
2023-05-21T11:40:50.049Z,953.00
2023-05-21T11:41:50.102Z,938.00
2023-05-21T11:42:50.155Z,948.00
2023-05-21T11:43:50.205Z,945.00
2023-05-21T11:44:50.249Z,952.00
2023-05-21T11:45:50.304Z,930.00
2023-05-21T11:46:50.371Z,923.00
2023-05-21T11:47:50.436Z,910.00
2023-05-21T11:48:50.498Z,897.00
2023-05-21T11:49:50.501Z,910.00
2023-05-21T11:50:50.572Z,916.00
2023-05-21T11:51:50.588Z,893.00
2023-05-21T11:52:50.647Z,917.00
2023-05-21T11:53:50.722Z,875.00
2023-05-21T11:54:50.971Z,846.00
2023-05-21T11:55:50.853Z,863.00
2023-05-21T11:56:50.886Z,844.00
2023-05-21T11:57:50.915Z,845.00
2023-05-21T11:58:50.992Z,862.00
2023-05-21T11:59:51.032Z,879.00
2023-05-21T12:00:51.109Z,909.00
2023-05-21T12:01:51.154Z,851.00
2023-05-21T12:02:51.310Z,840.00
2023-05-21T12:03:51.378Z,833.00
2023-05-21T12:04:51.326Z,834.00
2023-05-21T12:05:51.425Z,820.00
2023-05-21T12:06:51.405Z,822.00